ETGG

Gluecksburg / Meierwik Airport

Gluecksburg, Germany
METAR ETGG 201520Z 31017KT 9999 SCT038 BKN250 20/12 Q1017 BLU+
Observed Flight Rules
Aug-20 @ 15:20 UTC (an hour ago) Visual Flight Rules
Wind Visibility Clouds
310° at 17 knots 10,000+ meters
  • Scattered at 3,800' AGL
  • Broken at 25,000' AGL
Temperatures Readings
Current 20°C / 68°F
Dewpoint 12°C / 54°F
Humidity 60%
Altimeter 30.03" Hg
Pressure 1017 hPa
Elevation 33
METAR ETGG 201520Z 31017KT 9999 SCT038 BKN250 20/12 Q1017 BLU+
Observed Flight Rules
Aug-20 @ 15:20 UTC
(an hour ago)
VFR
Wind Visibility
310° at 17 knots 10,000+ meters
Clouds
  • Scattered at 3,800' AGL
  • Broken at 25,000' AGL
Temperature Dewpoint
20°C / 68°F 12°C / 54°F
Humidity Altimeter Pressure
60% 30.03" Hg 1017 hPa